M I D A S
Marine Information and Data Acquisition System
Tripno 1478 of the Zeeleeuw from 2008-02-07 07:33:22 to 2008-02-07 17:20:09
Back to CruiseResearch ActivitiesStationsMapUnderway DataData graphs

EquipmentUnitsComment
TimeDGPSUTC
LatitudeDGPSDM.mWGS84
LongitudeDGPSDM.mWGS84
HeadingGyrodeg 
SOGDGPSknotsSpeed over ground
COGDGPSdegCourse over ground
DepthEcho soundermeters200 kHz
Missing or incorrect values are displayed as -999
Navigation data collected by the RV Zeeleeuw from 2008-02-07 07:30:23 to 2008-02-07 17:30:04
                                                                                    Next 1000 lines
Time Latitude Longitude Heading SOG COG Depth
2008-02-07 07:30:34 51°13.664 2°55.95 110.9 1.2 292 5.4
2008-02-07 07:30:38 51°13.665 2°55.947 110.9 1.7 291 5.4
2008-02-07 07:30:43 51°13.666 2°55.943 110.9 2.1 291 5.4
2008-02-07 07:30:48 51°13.667 2°55.938 110.9 2.5 291 -999
2008-02-07 07:30:53 51°13.668 2°55.932 110.6 2.7 290 -999
2008-02-07 07:30:59 51°13.67 2°55.926 109.9 2.6 288 -999
2008-02-07 07:31:03 51°13.67 2°55.921 108.6 2.4 284 -999
2008-02-07 07:31:08 51°13.671 2°55.917 107 2.1 283 -999
2008-02-07 07:31:13 51°13.672 2°55.913 105.7 1.4 283 -999
2008-02-07 07:31:19 51°13.672 2°55.911 105.4 0.7 279 -999
2008-02-07 07:31:23 51°13.672 2°55.911 106.5 0.2 304 -999
2008-02-07 07:31:28 51°13.672 2°55.911 108.7 0.3 255 -999
2008-02-07 07:31:33 51°13.672 2°55.91 110.4 0.4 298 -999
2008-02-07 07:31:38 51°13.672 2°55.909 111 0.6 279 6.1
2008-02-07 07:31:43 51°13.672 2°55.907 111 0.8 292 6.2
2008-02-07 07:31:48 51°13.673 2°55.905 111.1 1.1 283 -999
2008-02-07 07:31:53 51°13.674 2°55.902 110.9 1.3 289 6.3
2008-02-07 07:31:58 51°13.674 2°55.899 110.5 1.5 284 -999
2008-02-07 07:32:03 51°13.675 2°55.895 110.3 1.7 288 6.5
2008-02-07 07:32:08 51°13.676 2°55.891 110.2 1.8 286 4.9
2008-02-07 07:32:13 51°13.676 2°55.887 110.2 2 288 -999
2008-02-07 07:32:18 51°13.677 2°55.883 111 2.2 289 -999
2008-02-07 07:32:23 51°13.678 2°55.878 112.1 2.3 291 -999
2008-02-07 07:32:28 51°13.679 2°55.873 113.5 2.5 290 -999
2008-02-07 07:32:33 51°13.681 2°55.867 114.7 2.8 293 -999
2008-02-07 07:32:38 51°13.682 2°55.861 116.1 3 293 -999
2008-02-07 07:32:43 51°13.684 2°55.854 117.3 3.3 296 -999
2008-02-07 07:32:48 51°13.686 2°55.848 118.7 3.5 296 -999
2008-02-07 07:32:54 51°13.689 2°55.84 119.8 3.6 298 -999
2008-02-07 07:32:59 51°13.692 2°55.832 121 3.8 299 -999
2008-02-07 07:33:03 51°13.694 2°55.826 122.1 4 300 -999
2008-02-07 07:33:08 51°13.697 2°55.819 123.2 4.1 302 -999
2008-02-07 07:33:13 51°13.7 2°55.811 124.3 4.2 302 -999
2008-02-07 07:33:19 51°13.704 2°55.801 125.5 4.4 304 -999
2008-02-07 07:33:23 51°13.707 2°55.795 126.7 4.5 304 -999
2008-02-07 07:33:28 51°13.711 2°55.787 127.9 4.6 305 -999
2008-02-07 07:33:33 51°13.714 2°55.778 129.1 4.6 306 -999
2008-02-07 07:33:38 51°13.718 2°55.77 130.4 4.7 307 -999
2008-02-07 07:33:43 51°13.722 2°55.762 131.5 4.7 309 -999
2008-02-07 07:33:48 51°13.727 2°55.755 132.8 4.7 310 -999
2008-02-07 07:33:53 51°13.731 2°55.747 134 4.7 311 -999
2008-02-07 07:33:58 51°13.735 2°55.739 135.2 4.7 312 -999
2008-02-07 07:34:03 51°13.74 2°55.731 136.6 4.7 312 -999
2008-02-07 07:34:09 51°13.745 2°55.722 138 4.6 313 -999
2008-02-07 07:34:13 51°13.748 2°55.716 139.7 4.7 315 -999
2008-02-07 07:34:18 51°13.753 2°55.709 141.5 4.7 317 -999
2008-02-07 07:34:23 51°13.758 2°55.702 143.7 4.8 318 -999
2008-02-07 07:34:29 51°13.764 2°55.694 145.8 4.8 321 -999
2008-02-07 07:34:34 51°13.769 2°55.687 148 4.9 323 -999
2008-02-07 07:34:38 51°13.773 2°55.682 150.1 5 324 -999
2008-02-07 07:34:43 51°13.779 2°55.675 152.3 5.1 327 -999
2008-02-07 07:34:48 51°13.785 2°55.669 154.5 5.2 329 -999
2008-02-07 07:34:53 51°13.791 2°55.664 156.9 5.2 331 -999
2008-02-07 07:34:58 51°13.798 2°55.658 159.4 5.3 334 -999
2008-02-07 07:35:03 51°13.805 2°55.653 162 5.4 336 -999
2008-02-07 07:35:08 51°13.812 2°55.649 164.6 5.4 339 -999
2008-02-07 07:35:13 51°13.819 2°55.645 167 5.4 341 -999
2008-02-07 07:35:18 51°13.826 2°55.642 169.6 5.3 344 -999
2008-02-07 07:35:23 51°13.833 2°55.639 172.7 5.2 347 -999
2008-02-07 07:35:28 51°13.841 2°55.637 175.8 5.2 349 -999
2008-02-07 07:35:33 51°13.848 2°55.636 179.1 5.1 352 -999
2008-02-07 07:35:39 51°13.856 2°55.635 182.4 5 356 -999
2008-02-07 07:35:43 51°13.862 2°55.634 185.8 5 359 -999
2008-02-07 07:35:48 51°13.868 2°55.635 189 4.9 2 -999
2008-02-07 07:35:53 51°13.875 2°55.635 192 4.8 5 -999
2008-02-07 07:35:58 51°13.881 2°55.637 195 4.8 7 -999
2008-02-07 07:36:04 51°13.889 2°55.638 198 4.8 10 -999
2008-02-07 07:36:08 51°13.894 2°55.64 201 4.7 13 -999
2008-02-07 07:36:13 51°13.9 2°55.643 204.3 4.4 16 -999
2008-02-07 07:36:18 51°13.906 2°55.646 207.6 4.2 18 -999
2008-02-07 07:36:23 51°13.911 2°55.649 209.7 4 21 -999
2008-02-07 07:36:28 51°13.916 2°55.652 212.9 3.7 23 -999
2008-02-07 07:36:33 51°13.921 2°55.656 215.2 3.6 26 -999
2008-02-07 07:36:38 51°13.925 2°55.659 217 3.4 27 -999
2008-02-07 07:36:43 51°13.929 2°55.663 218.7 3.2 30 8.4
2008-02-07 07:36:48 51°13.932 2°55.666 220.6 2.9 30 8.7
2008-02-07 07:36:54 51°13.936 2°55.67 223.2 2.4 34 5.1
2008-02-07 07:36:58 51°13.938 2°55.671 226 1.6 27 -999
2008-02-07 07:37:03 51°13.939 2°55.671 229.1 0.8 15 8.5
2008-02-07 07:37:08 51°13.939 2°55.67 233.4 0.6 293 8.5
2008-02-07 07:37:13 51°13.939 2°55.667 240.1 1.5 261 8.6
2008-02-07 07:37:18 51°13.938 2°55.663 248.3 2.2 266 9.1
2008-02-07 07:37:23 51°13.938 2°55.656 257.7 2.7 268 9.2
2008-02-07 07:37:28 51°13.939 2°55.65 265.3 2.8 277 9.2
2008-02-07 07:37:33 51°13.94 2°55.644 274.5 2.8 284 9.2
2008-02-07 07:37:38 51°13.941 2°55.638 282.8 2.9 288 9.2
2008-02-07 07:37:43 51°13.942 2°55.632 288.6 2.9 294 9.4
2008-02-07 07:37:48 51°13.944 2°55.626 294.1 3.1 298 9.5
2008-02-07 07:37:53 51°13.947 2°55.62 299.3 3.3 303 9.5
2008-02-07 07:37:58 51°13.95 2°55.614 303.6 3.6 307 9.5
2008-02-07 07:38:03 51°13.953 2°55.608 309.4 4 313 9.5
2008-02-07 07:38:08 51°13.958 2°55.601 314.4 4.4 316 -999
2008-02-07 07:38:13 51°13.963 2°55.594 317.5 4.7 319 9.5
2008-02-07 07:38:18 51°13.968 2°55.587 320.8 5 320 -999
2008-02-07 07:38:23 51°13.974 2°55.579 322.5 5.4 321 9.5
2008-02-07 07:38:28 51°13.98 2°55.571 323.5 5.7 321 9.2
2008-02-07 07:38:33 51°13.987 2°55.563 324 6 322 9.2
2008-02-07 07:38:38 51°13.993 2°55.555 324.9 6.2 322 9.1
2008-02-07 07:38:43 51°14.001 2°55.546 325.5 6.4 324 9.1
2008-02-07 07:38:48 51°14.008 2°55.537 326.2 6.6 324 8.7
2008-02-07 07:38:52 51°14.014 2°55.53 326.8 6.8 325 8.5
2008-02-07 07:38:57 51°14.022 2°55.522 327.5 6.9 325 8.9
2008-02-07 07:39:02 51°14.03 2°55.513 328.5 7.1 327 8.9
2008-02-07 07:39:07 51°14.039 2°55.505 329.5 7.3 327 9
2008-02-07 07:39:12 51°14.047 2°55.496 330.4 7.4 327 9
2008-02-07 07:39:17 51°14.056 2°55.487 330.8 7.5 326 8.8
2008-02-07 07:39:22 51°14.065 2°55.478 331 7.5 327 9.3
2008-02-07 07:39:27 51°14.073 2°55.469 331.2 7.7 328 -999
2008-02-07 07:39:33 51°14.085 2°55.458 331.9 7.8 329 -999
2008-02-07 07:39:38 51°14.094 2°55.449 332.2 7.9 328 9.7
2008-02-07 07:39:43 51°14.103 2°55.44 332.6 7.9 330 -999
2008-02-07 07:39:48 51°14.113 2°55.431 333.2 7.9 329 -999
2008-02-07 07:39:53 51°14.122 2°55.422 332.8 8 329 9.7
2008-02-07 07:39:58 51°14.132 2°55.413 332.3 8 329 -999
2008-02-07 07:40:03 51°14.141 2°55.403 332.2 8 329 -999
2008-02-07 07:40:08 51°14.151 2°55.394 332 8 328 -999
2008-02-07 07:40:13 51°14.16 2°55.384 331.2 8 326 9.5
2008-02-07 07:40:18 51°14.169 2°55.374 330 8.1 326 9.7
2008-02-07 07:40:23 51°14.178 2°55.364 329.4 8.2 325 9.1
2008-02-07 07:40:28 51°14.188 2°55.353 329.2 8.4 325 9.1
2008-02-07 07:40:33 51°14.198 2°55.342 329.2 8.6 325 9.6
2008-02-07 07:40:38 51°14.208 2°55.33 328.9 8.8 322 9.3
2008-02-07 07:40:43 51°14.217 2°55.317 327.1 8.9 321 9.5
2008-02-07 07:40:48 51°14.227 2°55.305 325.7 9 322 9.8
2008-02-07 07:40:52 51°14.235 2°55.295 325.6 9.2 319 9.7
2008-02-07 07:40:57 51°14.244 2°55.281 324.3 9.3 318 9.3
2008-02-07 07:41:02 51°14.254 2°55.267 323 9.3 317 8.7
2008-02-07 07:41:07 51°14.263 2°55.252 322.2 9.4 316 9.2
2008-02-07 07:41:12 51°14.272 2°55.237 320.2 9.6 312 8.9
2008-02-07 07:41:17 51°14.281 2°55.221 317.5 9.7 312 8.9
2008-02-07 07:41:22 51°14.29 2°55.204 315.5 9.8 309 8.9
2008-02-07 07:41:27 51°14.298 2°55.187 313.6 9.8 309 8.7
2008-02-07 07:41:32 51°14.307 2°55.17 312.8 9.9 308 8.7
2008-02-07 07:41:37 51°14.315 2°55.152 312.2 9.9 307 8.7
2008-02-07 07:41:42 51°14.323 2°55.135 311.1 10 306 8.6
2008-02-07 07:41:47 51°14.332 2°55.117 310.6 10.2 308 8.5
2008-02-07 07:41:51 51°14.339 2°55.103 310.9 10.3 307 9
2008-02-07 07:41:56 51°14.347 2°55.085 310.9 10.4 307 8.6
2008-02-07 07:42:01 51°14.356 2°55.065 310.6 10.6 306 8.8
2008-02-07 07:42:06 51°14.365 2°55.046 310.6 10.7 306 8.6
2008-02-07 07:42:11 51°14.373 2°55.027 310.6 10.7 305 8.6
2008-02-07 07:42:16 51°14.382 2°55.008 310.1 10.7 304 8.6
2008-02-07 07:42:21 51°14.39 2°54.988 309.1 10.8 304 8.6
2008-02-07 07:42:26 51°14.399 2°54.968 308.7 11 305 8.8
2008-02-07 07:42:31 51°14.408 2°54.948 309.9 11.1 306 8.9
2008-02-07 07:42:36 51°14.417 2°54.929 312.4 11.2 308 9.1
2008-02-07 07:42:41 51°14.427 2°54.909 313.7 11.4 308 9.2
2008-02-07 07:42:46 51°14.437 2°54.889 314.2 11.6 308 9.2
2008-02-07 07:42:51 51°14.447 2°54.869 314.2 11.6 308 9.3
2008-02-07 07:42:55 51°14.455 2°54.852 314.3 11.7 308 9.2
2008-02-07 07:43:00 51°14.465 2°54.832 314.3 11.9 307 9.3
2008-02-07 07:43:05 51°14.475 2°54.81 313.5 12.1 306 9.3
2008-02-07 07:43:10 51°14.484 2°54.789 313.1 12.2 307 9.2
2008-02-07 07:43:15 51°14.494 2°54.767 312.4 12.3 305 9
2008-02-07 07:43:20 51°14.504 2°54.744 311.5 12.4 304 9.1
2008-02-07 07:43:25 51°14.514 2°54.721 310.6 12.5 304 9
2008-02-07 07:43:30 51°14.523 2°54.698 309.8 12.6 303 9.1
2008-02-07 07:43:35 51°14.532 2°54.675 309.1 12.6 303 8.9
2008-02-07 07:43:39 51°14.54 2°54.656 308.4 12.6 302 8.8
2008-02-07 07:43:44 51°14.55 2°54.632 308.3 12.7 303 8.7
2008-02-07 07:43:50 51°14.561 2°54.604 308.1 12.8 302 8.8
2008-02-07 07:43:55 51°14.57 2°54.58 307.7 12.7 302 8.7
2008-02-07 07:43:59 51°14.578 2°54.561 307.7 12.7 302 8.5
2008-02-07 07:44:04 51°14.587 2°54.537 307.7 12.7 302 8.6
2008-02-07 07:44:10 51°14.598 2°54.508 307.7 12.7 302 8.5
2008-02-07 07:44:15 51°14.608 2°54.484 307.9 12.8 302 8.5
2008-02-07 07:44:20 51°14.617 2°54.46 308 12.9 302 8.6
2008-02-07 07:44:25 51°14.627 2°54.436 307.9 12.9 302 8.6
2008-02-07 07:44:30 51°14.637 2°54.412 308.3 12.9 302 8.7
2008-02-07 07:44:35 51°14.646 2°54.388 308.7 12.9 302 8.7
2008-02-07 07:44:39 51°14.654 2°54.369 308.4 12.9 302 8.7
2008-02-07 07:44:45 51°14.665 2°54.34 308.2 12.9 303 8.6
2008-02-07 07:44:50 51°14.675 2°54.316 308.2 12.9 302 8.7
2008-02-07 07:44:55 51°14.684 2°54.291 308.3 12.9 302 8.6
2008-02-07 07:45:00 51°14.693 2°54.267 307.8 12.8 301 8.5
2008-02-07 07:45:05 51°14.702 2°54.243 307.6 12.9 301 8.6
2008-02-07 07:45:10 51°14.711 2°54.218 307.4 12.9 301 8.7
2008-02-07 07:45:15 51°14.721 2°54.194 307.6 12.8 301 8.6
2008-02-07 07:45:19 51°14.728 2°54.175 307.7 12.7 301 8.4
2008-02-07 07:45:25 51°14.739 2°54.146 307.7 12.8 302 8.4
2008-02-07 07:45:30 51°14.748 2°54.122 308.1 12.7 302 8.2
2008-02-07 07:45:35 51°14.758 2°54.098 308.4 12.6 302 8.2
2008-02-07 07:45:39 51°14.765 2°54.079 308.5 12.7 302 8.1
2008-02-07 07:45:45 51°14.776 2°54.051 308.5 12.7 301 8.3
2008-02-07 07:45:50 51°14.785 2°54.027 307.7 12.7 300 8.2
2008-02-07 07:45:55 51°14.794 2°54.002 307.1 12.7 300 8.1
2008-02-07 07:45:59 51°14.801 2°53.983 306.7 12.6 300 8
2008-02-07 07:46:04 51°14.81 2°53.959 306.4 12.6 300 7.9
2008-02-07 07:46:10 51°14.82 2°53.93 306.4 12.6 301 7.9
2008-02-07 07:46:15 51°14.829 2°53.906 306.6 12.6 300 8.1
2008-02-07 07:46:19 51°14.836 2°53.887 307 12.6 301 7.9
2008-02-07 07:46:24 51°14.845 2°53.863 307.1 12.6 301 8
2008-02-07 07:46:30 51°14.856 2°53.834 307.2 12.7 301 8
2008-02-07 07:46:35 51°14.864 2°53.81 306.9 12.6 300 7.8
2008-02-07 07:46:40 51°14.873 2°53.786 306.2 12.6 300 7.9
2008-02-07 07:46:45 51°14.882 2°53.761 306.2 12.6 300 7.8
2008-02-07 07:46:50 51°14.89 2°53.737 306.2 12.6 300 8
2008-02-07 07:46:55 51°14.899 2°53.713 306.5 12.7 301 7.9
2008-02-07 07:47:00 51°14.908 2°53.689 307 12.6 301 7.8
2008-02-07 07:47:04 51°14.916 2°53.67 307.2 12.7 301 7.9
2008-02-07 07:47:09 51°14.925 2°53.646 307.6 12.7 302 7.9
2008-02-07 07:47:15 51°14.936 2°53.618 307.9 12.6 302 7.9
2008-02-07 07:47:20 51°14.945 2°53.594 307.7 12.6 301 7.8
2008-02-07 07:47:25 51°14.954 2°53.57 307.8 12.7 302 7.8
2008-02-07 07:47:30 51°14.963 2°53.546 307.8 12.7 302 7.8
2008-02-07 07:47:35 51°14.972 2°53.522 308 12.7 301 8
2008-02-07 07:47:39 51°14.98 2°53.502 307.7 12.8 301 8.2
2008-02-07 07:47:45 51°14.991 2°53.473 307.7 12.7 301 8.2
2008-02-07 07:47:50 51°15 2°53.449 307.4 12.8 301 8.2
2008-02-07 07:47:55 51°15.009 2°53.425 307 12.8 300 8.3
2008-02-07 07:47:59 51°15.016 2°53.405 307.1 12.9 301 8.3
2008-02-07 07:48:05 51°15.026 2°53.376 306.9 12.8 300 8.2
2008-02-07 07:48:10 51°15.036 2°53.352 306.9 12.8 300 8.2
2008-02-07 07:48:15 51°15.044 2°53.327 306.9 12.7 300 8.2
2008-02-07 07:48:19 51°15.052 2°53.308 306.9 12.7 301 8.2
2008-02-07 07:48:25 51°15.063 2°53.279 307.2 12.8 301 8.4
2008-02-07 07:48:30 51°15.072 2°53.254 307.2 12.8 301 8.4
2008-02-07 07:48:35 51°15.081 2°53.23 307.7 12.8 301 8.4
2008-02-07 07:48:39 51°15.088 2°53.211 307.8 12.8 301 8.5
2008-02-07 07:48:44 51°15.097 2°53.186 307.6 12.8 300 8.6
2008-02-07 07:48:50 51°15.108 2°53.157 307.2 12.8 300 8.5
2008-02-07 07:48:55 51°15.117 2°53.132 306.6 12.8 300 8.5
2008-02-07 07:49:00 51°15.126 2°53.108 306.8 12.8 301 8.5
2008-02-07 07:49:05 51°15.135 2°53.084 307 12.8 300 8.5
2008-02-07 07:49:10 51°15.144 2°53.059 307 12.8 301 8.6
2008-02-07 07:49:15 51°15.153 2°53.035 307.4 12.8 301 8.8
2008-02-07 07:49:20 51°15.162 2°53.011 307.7 12.7 301 8.6
2008-02-07 07:49:24 51°15.17 2°52.991 307.7 12.8 301 8.8
2008-02-07 07:49:30 51°15.18 2°52.962 307.6 12.9 301 8.8
2008-02-07 07:49:35 51°15.19 2°52.938 307.6 12.8 301 8.9
2008-02-07 07:49:40 51°15.199 2°52.913 308.3 12.9 302 9
2008-02-07 07:49:45 51°15.208 2°52.889 308.5 12.8 302 8.8
2008-02-07 07:49:50 51°15.218 2°52.865 308.4 12.8 301 8.8
2008-02-07 07:49:55 51°15.227 2°52.841 308.4 12.9 302 9
2008-02-07 07:50:00 51°15.237 2°52.816 308.4 12.9 302 8.9
2008-02-07 07:50:05 51°15.246 2°52.792 308.4 12.9 301 9.1
2008-02-07 07:50:10 51°15.255 2°52.767 308.4 12.9 301 9.2
2008-02-07 07:50:15 51°15.264 2°52.743 308.4 13 301 9.2
2008-02-07 07:50:19 51°15.272 2°52.724 308.5 12.9 302 9.3
2008-02-07 07:50:25 51°15.283 2°52.695 308.8 12.9 302 9.3
2008-02-07 07:50:30 51°15.293 2°52.67 308.7 12.9 302 9.3
2008-02-07 07:50:35 51°15.302 2°52.646 308.5 12.9 301 9.3
2008-02-07 07:50:40 51°15.311 2°52.622 308.6 12.9 302 9.3
2008-02-07 07:50:44 51°15.319 2°52.602 308.6 12.9 302 9.4
2008-02-07 07:50:50 51°15.33 2°52.573 308.6 12.9 302 9.4
2008-02-07 07:50:55 51°15.34 2°52.549 308.8 12.9 302 9.4
2008-02-07 07:51:00 51°15.349 2°52.524 308.8 12.9 301 9.6
2008-02-07 07:51:04 51°15.357 2°52.505 308.4 13 301 9.7
2008-02-07 07:51:09 51°15.365 2°52.48 308.3 12.9 300 9.7
2008-02-07 07:51:15 51°15.376 2°52.449 306.9 13 298 9.7
2008-02-07 07:51:20 51°15.383 2°52.423 302.7 13 293 9.8
2008-02-07 07:51:26 51°15.391 2°52.391 300.1 13.1 292 9.8
2008-02-07 07:51:31 51°15.397 2°52.363 297.9 13.1 290 9.9
2008-02-07 07:51:36 51°15.403 2°52.336 296 13.1 289 10
2008-02-07 07:51:40 51°15.407 2°52.314 295 13.2 288 10
2008-02-07 07:51:45 51°15.413 2°52.286 294 13.2 287 10.1
2008-02-07 07:51:50 51°15.418 2°52.258 293.2 13.2 286 10.2
2008-02-07 07:51:55 51°15.423 2°52.23 292.3 13.2 286 10.1
2008-02-07 07:52:00 51°15.427 2°52.201 291.7 13.3 285 10.2
2008-02-07 07:52:05 51°15.432 2°52.173 291.4 13.2 285 10.1
2008-02-07 07:52:11 51°15.438 2°52.138 291.2 13.3 285 10.3
2008-02-07 07:52:15 51°15.442 2°52.116 291 13.3 284 10.3
2008-02-07 07:52:20 51°15.446 2°52.087 290.5 13.3 284 10.4
2008-02-07 07:52:25 51°15.451 2°52.058 290.5 13.4 284 10.5
2008-02-07 07:52:31 51°15.457 2°52.024 290.7 13.4 284 10.5
2008-02-07 07:52:36 51°15.461 2°51.995 291 13.3 284 10.4
2008-02-07 07:52:40 51°15.465 2°51.972 290.5 13.4 283 10.5
2008-02-07 07:52:45 51°15.468 2°51.943 289.1 13.4 282 10.5
2008-02-07 07:52:50 51°15.472 2°51.914 288.1 13.4 281 10.5
2008-02-07 07:52:55 51°15.475 2°51.885 287.3 13.4 280 10.6
2008-02-07 07:53:00 51°15.477 2°51.855 285.3 13.4 278 10.6
2008-02-07 07:53:05 51°15.479 2°51.825 282.3 13.5 275 10.6
2008-02-07 07:53:11 51°15.481 2°51.789 280.6 13.5 275 10.6
2008-02-07 07:53:15 51°15.481 2°51.765 279.2 13.5 273 10.6
2008-02-07 07:53:20 51°15.482 2°51.736 278 13.5 273 10.6
2008-02-07 07:53:25 51°15.483 2°51.706 277.2 13.6 271 10.8
2008-02-07 07:53:31 51°15.483 2°51.67 276.5 13.6 271 10.8
2008-02-07 07:53:36 51°15.483 2°51.64 276.2 13.6 271 10.8
2008-02-07 07:53:40 51°15.483 2°51.616 275.7 13.6 270 10.9
2008-02-07 07:53:46 51°15.483 2°51.58 275.2 13.6 270 11
2008-02-07 07:53:50 51°15.483 2°51.556 274.4 13.6 268 10.9
2008-02-07 07:53:56 51°15.481 2°51.52 272.6 13.6 266 10.9
2008-02-07 07:54:00 51°15.48 2°51.496 271.1 13.6 266 10.9
2008-02-07 07:54:06 51°15.478 2°51.46 270 13.6 266 10.9
2008-02-07 07:54:10 51°15.477 2°51.436 269.3 13.6 265 10.9
2008-02-07 07:54:15 51°15.475 2°51.406 268.8 13.7 265 11
2008-02-07 07:54:20 51°15.473 2°51.376 268.6 13.6 264 11
2008-02-07 07:54:25 51°15.471 2°51.346 269.2 13.7 265 11
2008-02-07 07:54:30 51°15.469 2°51.316 269 13.6 265 11.1
2008-02-07 07:54:36 51°15.467 2°51.281 268.7 13.7 263 11
2008-02-07 07:54:40 51°15.466 2°51.257 268.5 13.6 265 11
2008-02-07 07:54:45 51°15.463 2°51.227 268.6 13.7 263 11.1
2008-02-07 07:54:50 51°15.462 2°51.197 268.2 13.6 264 11.1
2008-02-07 07:54:56 51°15.459 2°51.161 268.1 13.7 264 11.1
2008-02-07 07:55:00 51°15.457 2°51.137 268.2 13.7 263 11.1
2008-02-07 07:55:05 51°15.456 2°51.107 268.3 13.7 265 11
2008-02-07 07:55:11 51°15.454 2°51.07 268.5 13.7 265 11.1
2008-02-07 07:55:16 51°15.452 2°51.04 268.6 13.7 265 11.2
2008-02-07 07:55:20 51°15.451 2°51.016 269.7 13.7 266 11.2
2008-02-07 07:55:25 51°15.45 2°50.986 270.7 13.7 267 11.2
2008-02-07 07:55:31 51°15.449 2°50.95 271.4 13.7 267 11.2
2008-02-07 07:55:36 51°15.448 2°50.92 271.9 13.7 268 11.2
2008-02-07 07:55:40 51°15.448 2°50.895 272.1 13.7 267 11.2
2008-02-07 07:55:45 51°15.447 2°50.865 272.3 13.6 268 11.2
2008-02-07 07:55:50 51°15.446 2°50.835 272.2 13.7 267 11.2
2008-02-07 07:55:56 51°15.445 2°50.799 272 13.7 267 11.2
2008-02-07 07:56:00 51°15.444 2°50.775 270.9 13.7 266 11.3
2008-02-07 07:56:05 51°15.442 2°50.744 270.3 13.7 266 11.3
2008-02-07 07:56:10 51°15.441 2°50.714 270 13.7 265 11.3
2008-02-07 07:56:16 51°15.438 2°50.678 269.3 13.7 265 11.3
2008-02-07 07:56:20 51°15.437 2°50.654 269.2 13.7 265 11.3
2008-02-07 07:56:25 51°15.435 2°50.624 268.9 13.8 265 11.4
2008-02-07 07:56:30 51°15.434 2°50.594 268.9 13.7 264 11.3
2008-02-07 07:56:35 51°15.433 2°50.564 268.5 13.7 264 11.3
2008-02-07 07:56:40 51°15.431 2°50.533 268.5 13.7 265 11.4
2008-02-07 07:56:46 51°15.429 2°50.497 268.6 13.7 264 11.4
2008-02-07 07:56:50 51°15.428 2°50.473 268.9 13.6 266 11.3
2008-02-07 07:56:56 51°15.426 2°50.437 269.4 13.7 266 11.3
2008-02-07 07:57:00 51°15.425 2°50.412 270.4 13.7 268 11.4
2008-02-07 07:57:06 51°15.424 2°50.376 270.9 13.6 267 11.4
2008-02-07 07:57:11 51°15.423 2°50.346 271.1 13.7 268 11.3
2008-02-07 07:57:16 51°15.422 2°50.316 271.6 13.7 267 11.3
2008-02-07 07:57:20 51°15.421 2°50.292 271.6 13.7 267 11.4
2008-02-07 07:57:25 51°15.42 2°50.262 271.4 13.6 267 11.4
2008-02-07 07:57:31 51°15.419 2°50.226 270.2 13.6 265 11.3
2008-02-07 07:57:36 51°15.418 2°50.195 269.4 13.6 265 11.4
2008-02-07 07:57:40 51°15.416 2°50.171 269.4 13.6 265 11.4
2008-02-07 07:57:45 51°15.415 2°50.141 268.8 13.6 266 11.4
2008-02-07 07:57:51 51°15.412 2°50.105 269.2 13.6 265 11.4
2008-02-07 07:57:56 51°15.411 2°50.075 268.5 13.6 266 11.3
2008-02-07 07:58:00 51°15.409 2°50.051 268.9 13.6 265 11.5
2008-02-07 07:58:05 51°15.408 2°50.022 269.3 13.6 267 11.4
2008-02-07 07:58:10 51°15.407 2°49.992 269.5 13.6 266 11.4
2008-02-07 07:58:16 51°15.405 2°49.955 269.6 13.6 266 11.7
2008-02-07 07:58:20 51°15.404 2°49.932 270 13.5 267 11.5
2008-02-07 07:58:25 51°15.402 2°49.901 269.7 13.6 266 11.4
2008-02-07 07:58:30 51°15.402 2°49.872 270 13.5 267 11.7
2008-02-07 07:58:36 51°15.399 2°49.836 269.7 13.6 264 11.6
2008-02-07 07:58:40 51°15.399 2°49.812 269.5 13.6 267 11.5
2008-02-07 07:58:45 51°15.397 2°49.782 270 13.6 266 11.6
2008-02-07 07:58:50 51°15.396 2°49.752 269.6 13.5 265 11.5
2008-02-07 07:58:55 51°15.395 2°49.722 269.4 13.6 266 11.5
2008-02-07 07:59:00 51°15.393 2°49.692 269.5 13.6 265 11.6
2008-02-07 07:59:06 51°15.391 2°49.656 269.2 13.6 265 11.6
2008-02-07 07:59:10 51°15.39 2°49.632 269.2 13.5 266 11.6
2008-02-07 07:59:15 51°15.389 2°49.602 269.2 13.5 266 11.5
2008-02-07 07:59:20 51°15.388 2°49.572 269.5 13.6 267 11.5
2008-02-07 07:59:26 51°15.387 2°49.536 270.2 13.5 267 11.6
2008-02-07 07:59:30 51°15.385 2°49.512 269.5 13.5 265 11.6
2008-02-07 07:59:36 51°15.384 2°49.476 270 13.6 267 11.6
2008-02-07 07:59:40 51°15.383 2°49.452 270.2 13.6 266 11.5
2008-02-07 07:59:45 51°15.382 2°49.423 270 13.5 266 11.7
2008-02-07 07:59:51 51°15.381 2°49.387 269.4 13.5 266 11.6
2008-02-07 07:59:56 51°15.379 2°49.357 269.6 13.6 266 11.6
2008-02-07 07:59:59 51°15.378 2°49.339 269.7 13.6 266 11.6
2008-02-07 08:00:05 51°15.377 2°49.303 269.5 13.5 266 11.7
2008-02-07 08:00:10 51°15.375 2°49.273 269.2 13.5 265 11.6
2008-02-07 08:00:16 51°15.374 2°49.238 268.8 13.5 265 11.7
2008-02-07 08:00:20 51°15.373 2°49.214 268.9 13.5 266 11.6
2008-02-07 08:00:25 51°15.371 2°49.184 269.4 13.5 266 11.7
2008-02-07 08:00:30 51°15.37 2°49.154 269.7 13.5 266 11.6
2008-02-07 08:00:36 51°15.369 2°49.118 269.7 13.5 266 11.7
2008-02-07 08:00:40 51°15.368 2°49.095 270 13.5 267 11.7
2008-02-07 08:00:45 51°15.367 2°49.065 270.4 13.5 266 11.6
2008-02-07 08:00:50 51°15.367 2°49.035 270.6 13.4 268 11.7
2008-02-07 08:00:56 51°15.366 2°48.999 270.6 13.5 267 11.6
2008-02-07 08:01:00 51°15.365 2°48.975 270.7 13.5 268 11.6
2008-02-07 08:01:05 51°15.364 2°48.946 270.8 13.5 266 11.6
2008-02-07 08:01:11 51°15.363 2°48.91 270.7 13.4 268 11.6
2008-02-07 08:01:16 51°15.362 2°48.88 270.6 13.4 266 11.6
2008-02-07 08:01:20 51°15.361 2°48.857 270.4 13.4 267 11.6
2008-02-07 08:01:26 51°15.359 2°48.821 270 13.5 265 11.6
2008-02-07 08:01:31 51°15.358 2°48.791 269.9 13.4 268 11.5
2008-02-07 08:01:36 51°15.357 2°48.762 269.9 13.4 266 11.5
2008-02-07 08:01:40 51°15.356 2°48.738 269.7 13.4 266 11.2
2008-02-07 08:01:45 51°15.355 2°48.709 269.4 13.4 266 11.2
2008-02-07 08:01:50 51°15.354 2°48.679 269.3 13.4 266 11
2008-02-07 08:01:55 51°15.353 2°48.649 269.8 13.4 267 10.9
2008-02-07 08:02:00 51°15.351 2°48.62 270 13.4 266 10.7
2008-02-07 08:02:05 51°15.35 2°48.59 270.1 13.4 267 10.6
2008-02-07 08:02:10 51°15.349 2°48.561 270 13.4 265 10.5
2008-02-07 08:02:16 51°15.347 2°48.525 269.5 13.3 266 10.2
2008-02-07 08:02:20 51°15.346 2°48.502 269.2 13.3 266 10.2
2008-02-07 08:02:25 51°15.344 2°48.472 269.2 13.3 265 9.9
2008-02-07 08:02:30 51°15.343 2°48.443 269.2 13.3 266 9.8
2008-02-07 08:02:36 51°15.342 2°48.408 269.7 13.2 267 9.7
2008-02-07 08:02:40 51°15.341 2°48.384 269.8 13.2 266 9.6
2008-02-07 08:02:45 51°15.34 2°48.356 269.7 13.2 267 9.4
2008-02-07 08:02:50 51°15.338 2°48.326 269.6 13.2 265 9.4
2008-02-07 08:02:56 51°15.337 2°48.292 269.5 13.2 267 9.3
2008-02-07 08:03:00 51°15.335 2°48.269 269.4 13.1 265 9.1
2008-02-07 08:03:06 51°15.333 2°48.234 269 13.2 264 9
2008-02-07 08:03:10 51°15.333 2°48.211 268.6 13.1 266 8.9
2008-02-07 08:03:15 51°15.331 2°48.182 268.5 13.1 265 8.8
2008-02-07 08:03:20 51°15.329 2°48.153 269.1 13.1 266 8.7
2008-02-07 08:03:25 51°15.328 2°48.124 268.8 13.1 265 8.7
2008-02-07 08:03:30 51°15.326 2°48.096 268.8 13.1 265 8.7
2008-02-07 08:03:36 51°15.325 2°48.061 268.9 13.1 267 8.7
2008-02-07 08:03:40 51°15.323 2°48.038 269.2 13.1 265 8.6
2008-02-07 08:03:45 51°15.322 2°48.009 269.2 13.1 266 8.6
2008-02-07 08:03:51 51°15.32 2°47.974 269.5 13.1 265 8.5
2008-02-07 08:03:56 51°15.319 2°47.946 269.4 13.1 266 8.5
2008-02-07 08:04:00 51°15.318 2°47.922 269.4 13.1 265 8.5
2008-02-07 08:04:05 51°15.316 2°47.894 269.3 13.1 266 8.4
2008-02-07 08:04:11 51°15.315 2°47.859 269.3 13 265 8.4
2008-02-07 08:04:16 51°15.313 2°47.83 269.5 13.1 266 8.5
2008-02-07 08:04:20 51°15.312 2°47.807 269.6 13.1 266 8.4
2008-02-07 08:04:25 51°15.311 2°47.778 270 13.1 266 8.4
2008-02-07 08:04:30 51°15.31 2°47.75 269.7 13.1 266 8.5
2008-02-07 08:04:36 51°15.308 2°47.715 269.7 13.1 266 8.4
2008-02-07 08:04:40 51°15.307 2°47.692 269.6 13.1 265 8.5
2008-02-07 08:04:45 51°15.306 2°47.663 269.2 13.2 265 8.6
2008-02-07 08:04:50 51°15.304 2°47.634 268.8 13.2 265 8.5
2008-02-07 08:04:56 51°15.302 2°47.599 268.5 13.2 266 8.5
2008-02-07 08:05:00 51°15.301 2°47.576 269 13.2 266 8.6
2008-02-07 08:05:05 51°15.3 2°47.546 269.6 13.2 266 8.6
2008-02-07 08:05:10 51°15.299 2°47.517 269.9 13.2 266 8.6
2008-02-07 08:05:15 51°15.298 2°47.488 269.8 13.2 266 8.7
2008-02-07 08:05:20 51°15.296 2°47.459 269.3 13.2 265 8.7
2008-02-07 08:05:26 51°15.295 2°47.424 269.3 13.2 266 8.8
2008-02-07 08:05:30 51°15.293 2°47.401 269 13.3 265 8.8
2008-02-07 08:05:35 51°15.292 2°47.371 268.7 13.3 265 8.9
2008-02-07 08:05:40 51°15.291 2°47.342 268.9 13.3 266 8.9
2008-02-07 08:05:46 51°15.289 2°47.307 269.2 13.3 266 9
2008-02-07 08:05:50 51°15.288 2°47.284 269.8 13.3 265 9.1
2008-02-07 08:05:55 51°15.287 2°47.254 270 13.2 268 9.1
2008-02-07 08:06:00 51°15.286 2°47.225 270 13.3 265 9.3
2008-02-07 08:06:06 51°15.285 2°47.19 270.1 13.3 267 9.3
2008-02-07 08:06:10 51°15.285 2°47.166 270.1 13.3 267 9.3
2008-02-07 08:06:16 51°15.284 2°47.131 270.2 13.3 267 9.5
2008-02-07 08:06:20 51°15.282 2°47.108 270.5 13.4 266 9.6
2008-02-07 08:06:25 51°15.282 2°47.078 270.1 13.4 267 9.7
2008-02-07 08:06:31 51°15.28 2°47.043 270.3 13.4 266 9.8
2008-02-07 08:06:36 51°15.279 2°47.013 270 13.4 267 9.8
2008-02-07 08:06:40 51°15.278 2°46.989 270 13.4 266 9.9
2008-02-07 08:06:45 51°15.276 2°46.96 270 13.4 267 10.1
2008-02-07 08:06:51 51°15.275 2°46.924 270.1 13.4 267 10.1
2008-02-07 08:06:56 51°15.274 2°46.895 270.3 13.4 268 10.3
2008-02-07 08:07:00 51°15.273 2°46.871 270.7 13.4 267 10.2
2008-02-07 08:07:05 51°15.273 2°46.841 270.5 13.5 268 10.3
2008-02-07 08:07:10 51°15.271 2°46.812 270.5 13.5 266 10.5
2008-02-07 08:07:15 51°15.27 2°46.782 270.6 13.4 268 10.5
2008-02-07 08:07:20 51°15.269 2°46.752 270.7 13.5 267 10.6
2008-02-07 08:07:25 51°15.269 2°46.723 271.6 13.5 268 10.8
2008-02-07 08:07:30 51°15.268 2°46.693 271.3 13.5 267 10.8
2008-02-07 08:07:35 51°15.267 2°46.663 271.1 13.5 267 11
2008-02-07 08:07:40 51°15.266 2°46.634 271.1 13.4 267 11.1
2008-02-07 08:07:45 51°15.264 2°46.604 270.3 13.5 267 11.3
2008-02-07 08:07:50 51°15.264 2°46.574 271 13.5 267 11.3
2008-02-07 08:07:55 51°15.263 2°46.544 270.7 13.5 267 11.4
2008-02-07 08:08:00 51°15.262 2°46.514 270.8 13.5 268 11.6
2008-02-07 08:08:06 51°15.261 2°46.479 271.2 13.5 267 11.7
2008-02-07 08:08:10 51°15.26 2°46.455 271 13.5 267 11.8
2008-02-07 08:08:15 51°15.259 2°46.425 271 13.6 267 11.8
2008-02-07 08:08:20 51°15.259 2°46.395 271.3 13.6 268 12.1
2008-02-07 08:08:26 51°15.258 2°46.359 271.5 13.6 268 12.2
2008-02-07 08:08:30 51°15.257 2°46.335 271.7 13.6 268 12.3
2008-02-07 08:08:36 51°15.256 2°46.299 271.7 13.6 268 12.4
2008-02-07 08:08:40 51°15.256 2°46.275 271.3 13.6 267 12.6
2008-02-07 08:08:45 51°15.255 2°46.245 271 13.5 268 12.7
2008-02-07 08:08:51 51°15.254 2°46.208 271.2 13.6 267 12.7
2008-02-07 08:08:56 51°15.253 2°46.178 270.9 13.6 267 12.9
2008-02-07 08:09:00 51°15.252 2°46.154 271.3 13.6 268 12.9
2008-02-07 08:09:05 51°15.252 2°46.124 271.3 13.6 268 12.9
2008-02-07 08:09:11 51°15.251 2°46.088 271.1 13.6 268 13
2008-02-07 08:09:16 51°15.25 2°46.058 271.6 13.6 267 13.1
2008-02-07 08:09:20 51°15.249 2°46.034 271.3 13.7 268 13.2
2008-02-07 08:09:26 51°15.248 2°45.998 271.4 13.6 267 13.4
2008-02-07 08:09:30 51°15.247 2°45.974 271.3 13.7 267 13.5
2008-02-07 08:09:36 51°15.246 2°45.938 271.2 13.6 268 13.5
2008-02-07 08:09:40 51°15.245 2°45.914 271.5 13.6 267 13.7
2008-02-07 08:09:46 51°15.244 2°45.878 271 13.6 267 13.8
2008-02-07 08:09:50 51°15.243 2°45.854 271 13.6 267 13.9
2008-02-07 08:09:55 51°15.243 2°45.824 270.7 13.5 267 14
2008-02-07 08:10:00 51°15.241 2°45.794 270.3 13.6 266 14.2
2008-02-07 08:10:05 51°15.24 2°45.764 270.1 13.7 267 14.2
2008-02-07 08:10:11 51°15.239 2°45.727 270.2 13.7 267 14.3
2008-02-07 08:10:16 51°15.238 2°45.698 270.7 13.6 267 14.4
2008-02-07 08:10:20 51°15.237 2°45.673 270.5 13.7 266 14.4
2008-02-07 08:10:26 51°15.235 2°45.637 270.3 13.6 267 14.4
2008-02-07 08:10:31 51°15.234 2°45.607 270 13.6 265 14.5
2008-02-07 08:10:36 51°15.233 2°45.577 269.9 13.6 267 14.6
2008-02-07 08:10:40 51°15.232 2°45.553 270.2 13.6 267 14.7
2008-02-07 08:10:45 51°15.231 2°45.523 270.8 13.7 266 14.8
2008-02-07 08:10:51 51°15.23 2°45.487 270.7 13.7 267 14.9
2008-02-07 08:10:56 51°15.229 2°45.457 270.7 13.7 267 14.9
2008-02-07 08:11:00 51°15.228 2°45.432 270.5 13.7 266 15.1
2008-02-07 08:11:04 51°15.227 2°45.408 270.2 13.8 267 15.2
2008-02-07 08:11:10 51°15.226 2°45.372 270.6 13.7 267 15.2
2008-02-07 08:11:16 51°15.224 2°45.336 270.6 13.7 266 15.3
2008-02-07 08:11:20 51°15.223 2°45.312 270 13.7 266 15.4
2008-02-07 08:11:25 51°15.222 2°45.282 270.7 13.6 267 15.6
2008-02-07 08:11:30 51°15.221 2°45.252 270.2 13.7 265 15.6
2008-02-07 08:11:35 51°15.22 2°45.222 270.5 13.7 268 15.8
2008-02-07 08:11:40 51°15.219 2°45.191 270.9 13.6 266 15.8
2008-02-07 08:11:45 51°15.218 2°45.161 271 13.6 268 16
2008-02-07 08:11:50 51°15.217 2°45.131 271.6 13.7 266 16
2008-02-07 08:11:56 51°15.216 2°45.095 271.5 13.7 268 16
2008-02-07 08:12:00 51°15.215 2°45.071 271.5 13.7 267 16.1
2008-02-07 08:12:05 51°15.214 2°45.041 270.8 13.7 267 16.1
2008-02-07 08:12:10 51°15.213 2°45.01 270.8 13.7 267 16.3
2008-02-07 08:12:15 51°15.212 2°44.98 270.7 13.7 266 16.3
2008-02-07 08:12:20 51°15.211 2°44.95 270.8 13.7 268 16.4
2008-02-07 08:12:26 51°15.209 2°44.914 271.1 13.7 266 16.6
2008-02-07 08:12:30 51°15.209 2°44.889 270.7 13.8 266 16.6
2008-02-07 08:12:36 51°15.208 2°44.853 270.7 13.7 268 16.7
2008-02-07 08:12:40 51°15.206 2°44.829 271 13.8 266 16.9
2008-02-07 08:12:46 51°15.205 2°44.793 270.7 13.7 267 16.9
2008-02-07 08:12:51 51°15.204 2°44.762 270.2 13.8 266 17
2008-02-07 08:12:56 51°15.203 2°44.732 270.1 13.8 267 17.1
2008-02-07 08:13:00 51°15.202 2°44.708 270.7 13.7 267 17.1
2008-02-07 08:13:05 51°15.2 2°44.678 270 13.7 266 17.1
2008-02-07 08:13:11 51°15.199 2°44.642 270.4 13.7 267 17.1
2008-02-07 08:13:16 51°15.198 2°44.611 270.7 13.7 267 17.2
2008-02-07 08:13:20 51°15.197 2°44.587 270.9 13.7 267 17.2
2008-02-07 08:13:25 51°15.196 2°44.557 270.7 13.7 266 17.2
2008-02-07 08:13:31 51°15.194 2°44.521 270.5 13.8 266 17.2
2008-02-07 08:13:36 51°15.193 2°44.49 270.4 13.7 267 17.2
2008-02-07 08:13:40 51°15.192 2°44.466 270 13.7 265 17.2
2008-02-07 08:13:45 51°15.191 2°44.436 270 13.7 267 17.2
2008-02-07 08:13:50 51°15.189 2°44.406 270.2 13.7 265 17.1
2008-02-07 08:13:56 51°15.187 2°44.369 269.8 13.7 266 17.1
2008-02-07 08:14:00 51°15.186 2°44.345 270.2 13.7 266 17
2008-02-07 08:14:04 51°15.185 2°44.321 270 13.7 265 16.8
2008-02-07 08:14:10 51°15.183 2°44.285 269.5 13.7 266 16.7
2008-02-07 08:14:15 51°15.182 2°44.255 270.3 13.6 266 16.7
2008-02-07 08:14:20 51°15.18 2°44.225 270 13.7 266 16.5
2008-02-07 08:14:25 51°15.18 2°44.194 270 13.7 266 16.3
2008-02-07 08:14:30 51°15.178 2°44.164 270.2 13.6 265 16.3
2008-02-07 08:14:35 51°15.177 2°44.135 270.6 13.5 266 16.1
2008-02-07 08:14:40 51°15.176 2°44.105 270.7 13.6 267 16
2008-02-07 08:14:45 51°15.175 2°44.075 270.8 13.6 266 15.8
2008-02-07 08:14:50 51°15.174 2°44.045 270.7 13.6 266 15.8
2008-02-07 08:14:56 51°15.172 2°44.009 270.4 13.5 266 15.6
2008-02-07 08:15:00 51°15.171 2°43.985 270.6 13.5 267 15.5
2008-02-07 08:15:05 51°15.17 2°43.955 270.2 13.6 265 15.1
2008-02-07 08:15:10 51°15.169 2°43.925 270 13.6 266 15
2008-02-07 08:15:16 51°15.167 2°43.89 269.9 13.5 265 14.6
2008-02-07 08:15:19 51°15.166 2°43.872 270.1 13.5 267 14.6
2008-02-07 08:15:25 51°15.164 2°43.836 270.1 13.5 265 14.3
2008-02-07 08:15:31 51°15.163 2°43.8 270.4 13.5 266 14.2
2008-02-07 08:15:35 51°15.162 2°43.776 270.6 13.6 266 14.1
2008-02-07 08:15:40 51°15.161 2°43.746 270.6 13.5 267 13.9
2008-02-07 08:15:45 51°15.16 2°43.717 270.7 13.4 266 13.6
2008-02-07 08:15:50 51°15.158 2°43.687 270.7 13.5 266 13.4
2008-02-07 08:15:55 51°15.157 2°43.658 270.6 13.5 265 12.5
2008-02-07 08:15:59 51°15.156 2°43.634 270 13.4 265 10.8
2008-02-07 08:16:05 51°15.153 2°43.598 270 13.4 264 11.9
2008-02-07 08:16:10 51°15.152 2°43.569 269.4 13.4 265 12.4
2008-02-07 08:16:15 51°15.15 2°43.539 269.6 13.5 265 12.5
2008-02-07 08:16:20 51°15.149 2°43.51 269.7 13.5 265 12.4
2008-02-07 08:16:25 51°15.147 2°43.48 270.4 13.4 266 12.4
2008-02-07 08:16:30 51°15.146 2°43.45 270.6 13.5 265 12.2
2008-02-07 08:16:35 51°15.145 2°43.421 271 13.5 267 12.1
2008-02-07 08:16:40 51°15.144 2°43.391 271.5 13.6 267 12.3
2008-02-07 08:16:45 51°15.144 2°43.361 272.5 13.4 269 12.3
2008-02-07 08:16:51 51°15.146 2°43.327 275.8 13.1 274 12.3
2008-02-07 08:16:56 51°15.148 2°43.298 279.9 13.1 276 12.2
2008-02-07 08:17:00 51°15.15 2°43.274 282 13.3 277 12.1
2008-02-07 08:17:04 51°15.153 2°43.251 284.9 13.3 281 12.2
2008-02-07 08:17:10 51°15.157 2°43.217 286.5 13.1 281 12.2
2008-02-07 08:17:16 51°15.161 2°43.183 287.4 12.9 282 12.3
2008-02-07 08:17:20 51°15.165 2°43.161 288.2 13.1 283 12.3
2008-02-07 08:17:25 51°15.169 2°43.132 288.8 13.3 284 12.2
2008-02-07 08:17:31 51°15.174 2°43.098 290.3 13.2 284 12.3
2008-02-07 08:17:36 51°15.179 2°43.07 291.1 13 285 12.3
2008-02-07 08:17:40 51°15.182 2°43.047 290.5 13 284 12.4
2008-02-07 08:17:45 51°15.186 2°43.019 290.2 13.3 284 12.5
2008-02-07 08:17:51 51°15.191 2°42.985 289.7 13.3 283 12.6
2008-02-07 08:17:56 51°15.195 2°42.957 289.3 13.2 283 12.6
2008-02-07 08:18:00 51°15.198 2°42.934 289.4 13.1 283 12.6
2008-02-07 08:18:05 51°15.202 2°42.906 289.2 13 283 12.5
2008-02-07 08:18:10 51°15.207 2°42.877 288.9 13.2 282 12.4
2008-02-07 08:18:16 51°15.212 2°42.843 288.6 13.3 283 12.3
2008-02-07 08:18:20 51°15.215 2°42.82 289.2 13.1 283 12.4
2008-02-07 08:18:25 51°15.219 2°42.792 289.4 13 283 12.4
2008-02-07 08:18:30 51°15.223 2°42.764 289.2 13.2 283 12.3
2008-02-07 08:18:36 51°15.228 2°42.729 289.3 13.3 283 12.2
2008-02-07 08:18:40 51°15.231 2°42.707 289.1 13.2 282 12.1
2008-02-07 08:18:45 51°15.235 2°42.678 288.8 13.2 282 11.8
2008-02-07 08:18:50 51°15.239 2°42.65 288.7 13.1 283 10.9
2008-02-07 08:18:55 51°15.243 2°42.621 288.7 13.2 282 11.3
2008-02-07 08:19:00 51°15.246 2°42.593 288.3 13.2 282 11.9
2008-02-07 08:19:06 51°15.251 2°42.559 288.1 13.2 282 12
2008-02-07 08:19:10 51°15.254 2°42.536 288.4 13.1 283 12.2
2008-02-07 08:19:15 51°15.258 2°42.508 288.8 13.1 282 12.1
2008-02-07 08:19:20 51°15.262 2°42.48 288.9 13.1 283 11.8
2008-02-07 08:19:26 51°15.267 2°42.445 289 13.2 283 11.7
2008-02-07 08:19:30 51°15.27 2°42.423 288.8 13.2 283 11.3
2008-02-07 08:19:36 51°15.275 2°42.389 289 13 283 10.5
2008-02-07 08:19:40 51°15.278 2°42.367 289.2 12.9 283 9.6
2008-02-07 08:19:46 51°15.282 2°42.333 288.9 12.9 281 8.6
2008-02-07 08:19:51 51°15.286 2°42.305 288.2 12.9 281 10
2008-02-07 08:19:56 51°15.289 2°42.277 287.9 13.1 281 10.6
2008-02-07 08:20:00 51°15.292 2°42.254 287.5 13.1 282 10.5
2008-02-07 08:20:05 51°15.295 2°42.226 287.4 13.1 281 10
2008-02-07 08:20:11 51°15.3 2°42.192 287.4 13 282 8.4
2008-02-07 08:20:16 51°15.303 2°42.164 288.1 12.9 281 9.7
2008-02-07 08:20:20 51°15.306 2°42.141 287.7 13 281 9.7
2008-02-07 08:20:25 51°15.31 2°42.113 287.9 13.1 283 9.7
2008-02-07 08:20:31 51°15.314 2°42.079 288.1 13.2 281 9.5
2008-02-07 08:20:36 51°15.318 2°42.05 288.2 13.1 282 9.6
2008-02-07 08:20:40 51°15.321 2°42.028 288.1 13 281 9.6
2008-02-07 08:20:45 51°15.324 2°42 288.2 12.9 281 9.5
2008-02-07 08:20:50 51°15.328 2°41.972 288 13 283 9.2
2008-02-07 08:20:56 51°15.332 2°41.938 287.8 13.1 281 9.4
2008-02-07 08:21:00 51°15.336 2°41.915 287.8 13.1 283 9.3
2008-02-07 08:21:05 51°15.34 2°41.887 289.3 13.1 285 9.7
2008-02-07 08:21:10 51°15.346 2°41.86 292.2 12.9 288 9.7
2008-02-07 08:21:15 51°15.353 2°41.834 295.4 12.7 292 9.7
2008-02-07 08:21:20 51°15.359 2°41.808 298 12.7 293 9.7
2008-02-07 08:21:26 51°15.369 2°41.778 300.7 12.8 296 9.6
2008-02-07 08:21:30 51°15.376 2°41.757 302.6 12.8 298 9.8
2008-02-07 08:21:35 51°15.385 2°41.733 305.7 12.8 299 9.8
2008-02-07 08:21:40 51°15.394 2°41.709 306.7 12.7 301 9.9
2008-02-07 08:21:46 51°15.405 2°41.68 308.4 12.6 302 9.8
2008-02-07 08:21:50 51°15.413 2°41.662 308.4 12.6 302 9.6
2008-02-07 08:21:56 51°15.424 2°41.633 309 12.7 303 9.7
2008-02-07 08:22:00 51°15.432 2°41.615 309.6 12.8 304 9.6
2008-02-07 08:22:06 51°15.443 2°41.586 309.9 12.8 301 9.4
2008-02-07 08:22:11 51°15.452 2°41.562 309 12.7 302 9.5
2008-02-07 08:22:16 51°15.46 2°41.537 307.2 12.6 299 9.7
2008-02-07 08:22:20 51°15.467 2°41.518 306.4 12.6 300 9.6
2008-02-07 08:22:25 51°15.476 2°41.493 305.9 12.7 300 9.5
2008-02-07 08:22:31 51°15.487 2°41.464 306 12.9 299 9.5
2008-02-07 08:22:36 51°15.497 2°41.441 307 12.7 304 9.5
2008-02-07 08:22:40 51°15.504 2°41.421 308.5 12.7 301 9.5
2008-02-07 08:22:45 51°15.513 2°41.399 309.1 12.5 305 9.7
2008-02-07 08:22:50 51°15.523 2°41.376 310.5 12.5 304 9.5
2008-02-07 08:22:55 51°15.534 2°41.353 311.5 12.7 306 9.7
2008-02-07 08:23:00 51°15.545 2°41.331 312.8 12.8 307 9.6
2008-02-07 08:23:05 51°15.555 2°41.308 313.7 12.7 307 10
2008-02-07 08:23:10 51°15.566 2°41.287 313.9 12.6 308 9.9
2008-02-07 08:23:16 51°15.578 2°41.26 314.1 12.7 306 10.2
2008-02-07 08:23:20 51°15.587 2°41.241 313 12.7 306 10.1
2008-02-07 08:23:25 51°15.597 2°41.218 312.1 12.8 305 10.2
2008-02-07 08:23:31 51°15.609 2°41.19 311.3 12.8 304 10.7
2008-02-07 08:23:36 51°15.618 2°41.167 310.9 12.6 304 10.6
2008-02-07 08:23:40 51°15.626 2°41.149 310.5 12.6 304 10.3
2008-02-07 08:23:46 51°15.638 2°41.12 310 12.7 304 10.6
2008-02-07 08:23:50 51°15.646 2°41.102 310.2 12.8 304 10.9
2008-02-07 08:23:55 51°15.656 2°41.078 310.2 12.7 303 10.6
2008-02-07 08:24:00 51°15.666 2°41.055 310 12.7 304 10.9
2008-02-07 08:24:06 51°15.677 2°41.027 309.9 12.7 303 11.1
2008-02-07 08:24:10 51°15.685 2°41.008 309.9 12.8 304 11.5
2008-02-07 08:24:15 51°15.695 2°40.985 310.2 12.7 304 11.4
2008-02-07 08:24:20 51°15.705 2°40.961 310.6 12.6 304 11.4
2008-02-07 08:24:26 51°15.717 2°40.933 310.8 12.8 304 11.9
2008-02-07 08:24:30 51°15.725 2°40.915 311.6 12.7 305 12.5
2008-02-07 08:24:36 51°15.737 2°40.888 312 12.7 305 12.5
2008-02-07 08:24:40 51°15.745 2°40.869 312.2 12.8 306 12.6
2008-02-07 08:24:45 51°15.756 2°40.847 312.9 12.8 306 12.7
2008-02-07 08:24:51 51°15.768 2°40.819 313.1 12.7 306 13.2
2008-02-07 08:24:56 51°15.778 2°40.797 312.7 12.6 306 13.4
2008-02-07 08:25:00 51°15.787 2°40.778 312.2 12.8 305 13.7
2008-02-07 08:25:05 51°15.797 2°40.755 312.2 12.9 305 14
2008-02-07 08:25:10 51°15.807 2°40.731 311.9 12.7 304 14.5
2008-02-07 08:25:16 51°15.819 2°40.703 310.8 12.7 304 14.8
2008-02-07 08:25:20 51°15.827 2°40.684 310.5 12.9 304 15.1
2008-02-07 08:25:26 51°15.838 2°40.656 310.2 12.9 303 15.6
2008-02-07 08:25:30 51°15.846 2°40.637 310.5 12.8 303 15.8
2008-02-07 08:25:36 51°15.858 2°40.608 310.2 12.8 303 16
2008-02-07 08:25:40 51°15.866 2°40.589 309.9 12.9 304 16.1
2008-02-07 08:25:45 51°15.875 2°40.566 310.8 12.9 303 16.4
2008-02-07 08:25:50 51°15.885 2°40.542 311.1 12.8 304 16.6
2008-02-07 08:25:55 51°15.895 2°40.519 311.4 12.8 304 16.8
2008-02-07 08:26:00 51°15.905 2°40.495 311.6 12.9 305 17.2
2008-02-07 08:26:05 51°15.915 2°40.472 311.7 12.9 304 17.2
2008-02-07 08:26:10 51°15.925 2°40.448 311.4 12.8 304 17.5
2008-02-07 08:26:16 51°15.937 2°40.42 311 12.8 302 17.7
2008-02-07 08:26:20 51°15.945 2°40.401 310.3 12.9 303 17.9
2008-02-07 08:26:25 51°15.954 2°40.377 310.4 12.8 303 18.1
2008-02-07 08:26:30 51°15.964 2°40.353 310.3 12.9 302 18.3
2008-02-07 08:26:36 51°15.975 2°40.324 310.2 12.9 303 18.4
2008-02-07 08:26:40 51°15.983 2°40.304 309.9 12.9 302 18.5
2008-02-07 08:26:46 51°15.995 2°40.275 309.8 12.9 302 18.8
2008-02-07 08:26:51 51°16.004 2°40.251 309.5 12.9 302 18.8
2008-02-07 08:26:56 51°16.014 2°40.227 309.7 12.9 303 19.1
2008-02-07 08:27:00 51°16.021 2°40.208 310.1 12.9 302 19.2
2008-02-07 08:27:06 51°16.033 2°40.179 310.5 12.9 303 19.3
2008-02-07 08:27:11 51°16.043 2°40.155 310.6 12.9 303 19.5
2008-02-07 08:27:16 51°16.052 2°40.131 310.4 12.9 302 19.5
2008-02-07 08:27:20 51°16.059 2°40.112 310 12.9 302 19.5
2008-02-07 08:27:25 51°16.069 2°40.088 309.9 12.9 302 19.5
2008-02-07 08:27:30 51°16.079 2°40.064 309.9 12.9 303 19.5
2008-02-07 08:27:36 51°16.09 2°40.034 310.4 13 302 19.5
2008-02-07 08:27:40 51°16.098 2°40.015 310 12.9 302 19.7
2008-02-07 08:27:45 51°16.107 2°39.991 310.1 13 302 19.7
2008-02-07 08:27:50 51°16.117 2°39.967 310.3 12.9 303 19.6
2008-02-07 08:27:56 51°16.129 2°39.938 310.8 13 302 19.7
2008-02-07 08:28:00 51°16.137 2°39.919 310.6 12.9 302 19.6
2008-02-07 08:28:05 51°16.146 2°39.895 310.6 12.9 302 19.8
2008-02-07 08:28:10 51°16.156 2°39.871 310.3 12.9 302 19.6
2008-02-07 08:28:15 51°16.165 2°39.847 310 12.9 302 19.6
2008-02-07 08:28:20 51°16.175 2°39.823 310.2 12.9 303 19.5
2008-02-07 08:28:26 51°16.187 2°39.794 310.7 12.9 304 19.2
2008-02-07 08:28:30 51°16.195 2°39.776 311.8 12.8 305 19.2
2008-02-07 08:28:35 51°16.205 2°39.752 312.4 12.8 306 19.2
2008-02-07 08:28:40 51°16.216 2°39.729 313.3 12.8 306 19.4
2008-02-07 08:28:46 51°16.228 2°39.702 313.7 12.9 305 19.2
2008-02-07 08:28:50 51°16.237 2°39.683 313.9 12.9 306 19.1
2008-02-07 08:28:56 51°16.249 2°39.655 313.5 12.9 305 19
2008-02-07 08:29:00 51°16.257 2°39.637 313.4 12.9 305 18.8
2008-02-07 08:29:06 51°16.27 2°39.609 313.6 12.8 306 18.9
2008-02-07 08:29:11 51°16.28 2°39.585 313.7 12.9 305 18.5
2008-02-07 08:29:16 51°16.29 2°39.562 313.4 12.9 306 18.3
2008-02-07 08:29:20 51°16.299 2°39.544 313.5 12.9 305 18.4
2008-02-07 08:29:25 51°16.309 2°39.521 313.4 12.8 306 18
2008-02-07 08:29:31 51°16.322 2°39.492 313.6 12.9 305 17.9
2008-02-07 08:29:36 51°16.332 2°39.47 313.8 12.9 307 17.6
2008-02-07 08:29:40 51°16.34 2°39.451 313.7 12.9 306 17.2
2008-02-07 08:29:46 51°16.353 2°39.424 314.2 12.9 307 17
2008-02-07 08:29:50 51°16.362 2°39.406 314.7 12.9 306 17.4
2008-02-07 08:29:56 51°16.375 2°39.378 314.5 12.9 307 16.8
2008-02-07 08:30:00 51°16.383 2°39.36 314.3 12.9 306 16.3
2008-02-07 08:30:05 51°16.394 2°39.337 314.3 12.8 307 16.1
2008-02-07 08:30:10 51°16.404 2°39.314 314.1 12.9 306 15.5
2008-02-07 08:30:16 51°16.417 2°39.286 313.7 12.9 306 15
2008-02-07 08:30:20 51°16.425 2°39.268 314 12.9 306 14.3
2008-02-07 08:30:25 51°16.436 2°39.245 313.5 12.9 306 14
2008-02-07 08:30:31 51°16.448 2°39.217 313.3 12.9 306 13.7
2008-02-07 08:30:36 51°16.459 2°39.194 313.6 12.9 306 13.3
2008-02-07 08:30:40 51°16.468 2°39.176 314.1 12.8 307 12.8
2008-02-07 08:30:45 51°16.478 2°39.153 314.4 12.9 307 12.7
2008-02-07 08:30:50 51°16.489 2°39.131 314.6 12.9 307 12.3
2008-02-07 08:30:55 51°16.5 2°39.108 314.7 12.9 308 11.9
2008-02-07 08:31:00 51°16.511 2°39.085 314.6 12.9 307 11.7
2008-02-07 08:31:06 51°16.523 2°39.058 314.1 12.9 306 11.4
2008-02-07 08:31:10 51°16.532 2°39.039 313.5 12.9 306 11.2
2008-02-07 08:31:15 51°16.542 2°39.016 312.7 12.9 305 10.7
2008-02-07 08:31:20 51°16.552 2°38.993 311.9 12.9 305 10.5
2008-02-07 08:31:25 51°16.562 2°38.97 311.2 12.8 304 10.1
2008-02-07 08:31:30 51°16.572 2°38.946 310.8 12.8 305 9.9
2008-02-07 08:31:36 51°16.584 2°38.918 310.6 12.8 304 9.9
2008-02-07 08:31:40 51°16.592 2°38.899 310.4 12.8 305 9.6
2008-02-07 08:31:45 51°16.602 2°38.875 310.4 12.8 304 9.6
2008-02-07 08:31:50 51°16.612 2°38.852 310.3 12.8 305 9.2
2008-02-07 08:31:56 51°16.624 2°38.824 310.8 12.8 305 9.2
2008-02-07 08:32:00 51°16.632 2°38.805 310.6 12.9 303 8.8
2008-02-07 08:32:06 51°16.644 2°38.777 310.6 12.8 305 8.5
2008-02-07 08:32:10 51°16.652 2°38.759 310.8 12.8 305 8.6
2008-02-07 08:32:16 51°16.665 2°38.731 311.6 12.8 306 8.5
2008-02-07 08:32:20 51°16.673 2°38.712 311.1 12.8 304 8.2
2008-02-07 08:32:26 51°16.685 2°38.684 310.7 12.8 305 8
2008-02-07 08:32:30 51°16.692 2°38.666 310.4 12.8 303 7.9
2008-02-07 08:32:35 51°16.702 2°38.642 309.6 12.7 305 7.9
2008-02-07 08:32:40 51°16.713 2°38.619 310.2 12.7 304 7.7
2008-02-07 08:32:46 51°16.724 2°38.591 310.1 12.7 304 7.7
2008-02-07 08:32:50 51°16.732 2°38.572 309.3 12.8 303 7.6
2008-02-07 08:32:56 51°16.745 2°38.544 309.9 12.8 306 7.6
2008-02-07 08:33:00 51°16.753 2°38.526 310.1 12.8 305 7.8
2008-02-07 08:33:05 51°16.763 2°38.503 310.6 12.9 305 7.8
2008-02-07 08:33:11 51°16.775 2°38.474 309.9 13 304 7.5
2008-02-07 08:33:16 51°16.785 2°38.451 310.2 12.8 305 7.9
2008-02-07 08:33:20 51°16.793 2°38.432 309.6 12.7 303 8.4
2008-02-07 08:33:25 51°16.803 2°38.408 308.8 13 304 10.2
2008-02-07 08:33:31 51°16.816 2°38.378 308.9 13.4 304 11.9
2008-02-07 08:33:36 51°16.827 2°38.353 309.1 13.8 305 13.7
2008-02-07 08:33:40 51°16.836 2°38.333 309.5 13.9 305 15.8
2008-02-07 08:33:45 51°16.847 2°38.308 310.3 13.7 306 17.4
2008-02-07 08:33:51 51°16.86 2°38.28 311 13.5 306 18.6
2008-02-07 08:33:56 51°16.871 2°38.256 311.9 13.5 307 20.1
2008-02-07 08:34:00 51°16.88 2°38.237 312.4 13.4 306 21
2008-02-07 08:34:05 51°16.892 2°38.213 312.8 13.4 307 22.1
2008-02-07 08:34:10 51°16.902 2°38.19 312.8 13.3 306 23.2
2008-02-07 08:34:16 51°16.916 2°38.162 312.8 13.3 307 23.2
2008-02-07 08:34:20 51°16.924 2°38.143 312.9 13.3 306 23.5
2008-02-07 08:34:25 51°16.935 2°38.119 312.8 13.2 306 23.6
2008-02-07 08:34:30 51°16.946 2°38.095 312.4 13.2 306 24.1
2008-02-07 08:34:36 51°16.959 2°38.067 312.4 13.2 306 24.9
2008-02-07 08:34:40 51°16.967 2°38.048 312.5 13.1 306 25.3
2008-02-07 08:34:46 51°16.98 2°38.02 312.5 13.1 306 25.5
2008-02-07 08:34:50 51°16.988 2°38 312.3 13.2 304 25.7
2008-02-07 08:34:55 51°16.999 2°37.977 311.7 13.2 305 25.5
2008-02-07 08:35:00 51°17.009 2°37.953 311.3 13.1 305 25.6
2008-02-07 08:35:06 51°17.021 2°37.924 311.2 13.1 304 25.6
2008-02-07 08:35:10 51°17.029 2°37.905 311.1 13.1 304 25.5
2008-02-07 08:35:16 51°17.042 2°37.876 311.4 13.1 304 25.5
2008-02-07 08:35:20 51°17.05 2°37.857 311.3 13.1 304 25.6
2008-02-07 08:35:26 51°17.062 2°37.828 311.6 13.1 305 25.6
2008-02-07 08:35:31 51°17.073 2°37.804 312 13.1 304 25.6
2008-02-07 08:35:36 51°17.083 2°37.781 312.2 13.1 305 25.5
2008-02-07 08:35:40 51°17.092 2°37.762 312.5 13.1 305 25.5
2008-02-07 08:35:45 51°17.102 2°37.738 311.8 13.1 304 25.6
2008-02-07 08:35:51 51°17.114 2°37.709 311.5 13.1 304 25.7
2008-02-07 08:35:56 51°17.124 2°37.685 311.6 13.1 305 25.8
2008-02-07 08:36:00 51°17.133 2°37.666 311.7 13.1 304 25.8
2008-02-07 08:36:05 51°17.143 2°37.642 311.8 13.1 304 25.7
2008-02-07 08:36:11 51°17.156 2°37.614 311.7 13.1 305 25.6
2008-02-07 08:36:16 51°17.166 2°37.59 311.8 13.2 304 25.7
2008-02-07 08:36:20 51°17.174 2°37.57 311.4 13.1 304 26
2008-02-07 08:36:25 51°17.184 2°37.546 311.3 13.2 304 26
2008-02-07 08:36:30 51°17.194 2°37.522 310.7 13.1 304 26
2008-02-07 08:36:36 51°17.206 2°37.493 311.3 13.2 304 26.1
2008-02-07 08:36:40 51°17.215 2°37.474 311.2 13.1 304 25.8
2008-02-07 08:36:45 51°17.225 2°37.45 311.3 13.1 304 25.8
2008-02-07 08:36:50 51°17.235 2°37.426 311.7 13 304 25.7
2008-02-07 08:36:56 51°17.247 2°37.398 311.6 13 305 25.7
2008-02-07 08:37:00 51°17.256 2°37.379 311.7 13 305 25.8
2008-02-07 08:37:06 51°17.268 2°37.351 312 13 305 25.7
2008-02-07 08:37:10 51°17.277 2°37.332 312.4 13 306 25.7
2008-02-07 08:37:15 51°17.287 2°37.308 312.5 13 305 26
2008-02-07 08:37:20 51°17.297 2°37.285 312.5 13 305 25.9
2008-02-07 08:37:26 51°17.31 2°37.256 312.5 13.1 304 25.9
2008-02-07 08:37:30 51°17.318 2°37.238 312 13.1 305 26.1
2008-02-07 08:37:35 51°17.328 2°37.214 312.1 13 304 25.8
2008-02-07 08:37:40 51°17.338 2°37.19 311.8 13 305 25.9
2008-02-07 08:37:46 51°17.351 2°37.161 311.7 13.1 304 26.1
2008-02-07 08:37:50 51°17.358 2°37.142 311.3 13.1 304 26.3
2008-02-07 08:37:56 51°17.37 2°37.113 311 13 303 26.2
2008-02-07 08:38:00 51°17.378 2°37.094 311.2 13 304 25.9
2008-02-07 08:38:06 51°17.391 2°37.065 311.1 13 304 26.2
2008-02-07 08:38:11 51°17.4 2°37.041 311.1 13.1 303 26.2
2008-02-07 08:38:16 51°17.41 2°37.017 311 13.1 304 26.1
2008-02-07 08:38:20 51°17.418 2°36.997 310.8 13 303 25.8
2008-02-07 08:38:26 51°17.43 2°36.969 310.9 13 304 25.8
2008-02-07 08:38:31 51°17.44 2°36.944 310.9 13.1 302 25.3
2008-02-07 08:38:36 51°17.45 2°36.92 310.7 13 303 24.9
2008-02-07 08:38:40 51°17.458 2°36.901 311.2 13 305 24.7
2008-02-07 08:38:45 51°17.468 2°36.877 311.6 13 304 24.5
2008-02-07 08:38:50 51°17.479 2°36.854 311.6 13.1 304 24.2
2008-02-07 08:38:56 51°17.491 2°36.825 311.3 13.1 304 24.2
2008-02-07 08:39:00 51°17.499 2°36.806 311.2 13 304 24.1
2008-02-07 08:39:05 51°17.509 2°36.782 311.6 13.1 304 23.5
2008-02-07 08:39:10 51°17.519 2°36.758 311.6 13 304 23.1
2008-02-07 08:39:16 51°17.531 2°36.729 311.4 13 305 22.7
2008-02-07 08:39:20 51°17.539 2°36.71 311.7 13 304 22.7
2008-02-07 08:39:25 51°17.55 2°36.686 311.8 13.1 305 21.8
2008-02-07 08:39:31 51°17.562 2°36.658 312.6 13 305 22
2008-02-07 08:39:36 51°17.572 2°36.634 312 13 304 21.6
2008-02-07 08:39:40 51°17.58 2°36.616 312 12.9 305 20.5
2008-02-07 08:39:46 51°17.592 2°36.587 311.7 13 304 20.2
2008-02-07 08:39:50 51°17.601 2°36.568 311.8 12.9 305 18.9
2008-02-07 08:39:55 51°17.611 2°36.545 311.9 12.9 305 19.8
2008-02-07 08:40:00 51°17.621 2°36.521 311.8 12.9 304 19.1
2008-02-07 08:40:06 51°17.634 2°36.493 311.8 12.9 305 18.3
2008-02-07 08:40:10 51°17.641 2°36.474 311.3 13 303 18
2008-02-07 08:40:16 51°17.654 2°36.446 311.5 12.9 305 17.7
2008-02-07 08:40:20 51°17.661 2°36.426 311.6 12.9 304 17.2
2008-02-07 08:40:26 51°17.674 2°36.398 311.5 12.9 304 16.8
2008-02-07 08:40:31 51°17.684 2°36.375 311.3 13 305 16.5
2008-02-07 08:40:36 51°17.694 2°36.351 311.7 12.9 305 16.1
2008-02-07 08:40:40 51°17.702 2°36.332 312 12.9 305 15.7
2008-02-07 08:40:45 51°17.713 2°36.309 312 13 306 15.3
2008-02-07 08:40:51 51°17.725 2°36.281 311.6 12.9 304 14.6
2008-02-07 08:40:56 51°17.735 2°36.257 311.2 12.9 306 14.5
2008-02-07 08:41:00 51°17.743 2°36.238 311.5 13 304 14.4
2008-02-07 08:41:06 51°17.755 2°36.21 311.3 12.9 305 13.7
2008-02-07 08:41:10 51°17.764 2°36.192 311.4 12.9 305 13.2
2008-02-07 08:41:16 51°17.776 2°36.163 311.7 12.9 305 13
2008-02-07 08:41:20 51°17.784 2°36.144 311.7 12.9 305 12.6
2008-02-07 08:41:25 51°17.794 2°36.121 311.3 13 304 12.4
2008-02-07 08:41:30 51°17.805 2°36.098 311.8 12.9 306 12
2008-02-07 08:41:36 51°17.817 2°36.07 312 13 305 11.8
2008-02-07 08:41:40 51°17.826 2°36.051 311.9 13 306 11.6
2008-02-07 08:41:45 51°17.836 2°36.027 311.8 12.9 305 11.1
2008-02-07 08:41:51 51°17.849 2°35.999 311.9 12.9 306 11.5
2008-02-07 08:41:56 51°17.859 2°35.976 312 12.9 305 11.5
2008-02-07 08:42:00 51°17.867 2°35.957 311.9 13.1 304 10.9
2008-02-07 08:42:05 51°17.878 2°35.934 311.3 13 305 10.1
2008-02-07 08:42:11 51°17.889 2°35.905 310.9 13 304 10.9
2008-02-07 08:42:16 51°17.9 2°35.882 310.7 12.9 306 10.1
2008-02-07 08:42:20 51°17.908 2°35.864 311.4 12.6 306 11
2008-02-07 08:42:26 51°17.92 2°35.839 311.6 12.1 306 13
2008-02-07 08:42:30 51°17.928 2°35.823 313 11.8 310 13.5
2008-02-07 08:42:36 51°17.942 2°35.802 318 11.4 315 13.7
2008-02-07 08:42:40 51°17.951 2°35.789 322.1 11.1 317 13.6
2008-02-07 08:42:46 51°17.965 2°35.772 326.7 10.7 322 13.8
2008-02-07 08:42:51 51°17.978 2°35.759 330.9 10.5 327 14.2
2008-02-07 08:42:56 51°17.99 2°35.748 334.8 10.3 329 14.9
2008-02-07 08:43:00 51°18 2°35.739 337.6 10.3 330 15.3
2008-02-07 08:43:05 51°18.012 2°35.729 340.2 10.1 334 16.1
2008-02-07 08:43:11 51°18.027 2°35.718 341.6 10 334 17
2008-02-07 08:43:16 51°18.04 2°35.709 343.2 9.9 337 17.5
2008-02-07 08:43:20 51°18.05 2°35.703 344.5 9.9 337 18.2
2008-02-07 08:43:26 51°18.066 2°35.692 345.1 10 337 18.5
2008-02-07 08:43:30 51°18.076 2°35.686 345.4 9.9 338 18.9
2008-02-07 08:43:36 51°18.091 2°35.676 345.9 9.9 339 18.9
2008-02-07 08:43:40 51°18.101 2°35.669 345.8 9.9 337 19.3
2008-02-07 08:43:46 51°18.116 2°35.66 345.3 9.8 339 19.7
2008-02-07 08:43:50 51°18.126 2°35.654 345.3 9.7 339 20.2
2008-02-07 08:43:55 51°18.139 2°35.648 348 9.5 345 20.3
2008-02-07 08:44:00 51°18.152 2°35.644 352.9 9.5 348 20.9
2008-02-07 08:44:06 51°18.168 2°35.64 356.2 9.5 351 21.1
2008-02-07 08:44:10 51°18.178 2°35.638 358.7 9.4 355 21.5
2008-02-07 08:44:16 51°18.194 2°35.636 1 9.4 355 21.6
2008-02-07 08:44:20 51°18.204 2°35.637 4.7 9.3 2 21.6
2008-02-07 08:44:25 51°18.217 2°35.639 9.1 9.2 3 21.3
2008-02-07 08:44:31 51°18.232 2°35.642 12.7 9.1 8 21.5
2008-02-07 08:44:36 51°18.244 2°35.647 15.4 9 12 22
2008-02-07 08:44:40 51°18.253 2°35.651 18.6 9 15 23.4
2008-02-07 08:44:45 51°18.265 2°35.658 22.4 8.9 19 23.1
2008-02-07 08:44:51 51°18.278 2°35.668 26.4 8.9 25 23.6
2008-02-07 08:44:56 51°18.289 2°35.677 29.9 8.8 28 23.8
2008-02-07 08:45:00 51°18.297 2°35.686 34.5 8.7 34 24
2008-02-07 08:45:05 51°18.306 2°35.698 40.1 8.7 38 23.9
2008-02-07 08:45:11 51°18.318 2°35.713 42 8.8 39 23.2
2008-02-07 08:45:16 51°18.327 2°35.726 43.2 8.8 42 23.8
2008-02-07 08:45:20 51°18.334 2°35.736 44.7 8.7 43 22.2
2008-02-07 08:45:25 51°18.342 2°35.751 47.2 8.8 46 22.8
2008-02-07 08:45:31 51°18.352 2°35.767 49.3 8.7 46 25
2008-02-07 08:45:36 51°18.36 2°35.781 49.8 8.7 47 24.3
2008-02-07 08:45:40 51°18.368 2°35.791 48.6 8.7 43 24.1
2008-02-07 08:45:45 51°18.377 2°35.804 44.8 8.8 38 23.3
2008-02-07 08:45:50 51°18.387 2°35.815 41.3 8.9 35 23.1
2008-02-07 08:45:56 51°18.4 2°35.828 38.7 8.9 34 22.5
2008-02-07 08:46:00 51°18.408 2°35.836 37 8.9 33 23.9
2008-02-07 08:46:06 51°18.42 2°35.85 37 8.9 34 22.6
2008-02-07 08:46:10 51°18.428 2°35.86 38 8.9 39 23.7
2008-02-07 08:46:15 51°18.437 2°35.872 40.5 8.9 39 24.6
2008-02-07 08:46:20 51°18.446 2°35.886 44.6 8.9 46 23.9
2008-02-07 08:46:26 51°18.456 2°35.904 48.7 8.8 48 24.1
2008-02-07 08:46:30 51°18.462 2°35.916 51.5 8.8 50 22.9
2008-02-07 08:46:36 51°18.471 2°35.934 53.3 8.8 51 22.9
2008-02-07 08:46:40 51°18.477 2°35.947 55.3 8.8 55 23.1
2008-02-07 08:46:46 51°18.486 2°35.964 54.5 8.7 50 21.8
2008-02-07 08:46:51 51°18.495 2°35.978 51.4 8.8 46 22.3
2008-02-07 08:46:56 51°18.503 2°35.992 48.6 8.7 45 25.5
2008-02-07 08:47:00 51°18.51 2°36.003 47.1 8.8 45 25.6
2008-02-07 08:47:05 51°18.519 2°36.016 47.1 8.8 43 24.8
2008-02-07 08:47:10 51°18.527 2°36.03 47.3 8.8 48 24.2
2008-02-07 08:47:15 51°18.536 2°36.044 48.7 8.8 46 23.2
2008-02-07 08:47:20 51°18.544 2°36.059 49.3 8.6 48 22.2
2008-02-07 08:47:25 51°18.551 2°36.072 50.6 8.2 50 21.2
2008-02-07 08:47:31 51°18.559 2°36.088 51.3 7.7 50 19.8
2008-02-07 08:47:36 51°18.566 2°36.1 51.9 7.3 47 24.1
2008-02-07 08:47:40 51°18.571 2°36.11 51.9 7.1 53 26.4
2008-02-07 08:47:45 51°18.578 2°36.12 51.5 6.7 42 25.9
2008-02-07 08:47:51 51°18.584 2°36.132 49.7 6.3 49 25.3
2008-02-07 08:47:56 51°18.591 2°36.14 47.9 5.8 40 25
2008-02-07 08:48:00 51°18.595 2°36.147 46.2 5.5 46 24.5
2008-02-07 08:48:04 51°18.599 2°36.153 45.4 5.1 39 23.7
2008-02-07 08:48:10 51°18.605 2°36.162 44.5 5 42 23.1
2008-02-07 08:48:16 51°18.611 2°36.169 43.5 4.7 37 22.5
2008-02-07 08:48:20 51°18.615 2°36.174 42.5 4.5 39 21.9
2008-02-07 08:48:25 51°18.62 2°36.179 41.6 4.3 34 21.1
2008-02-07 08:48:30 51°18.625 2°36.185 40.9 4.1 34 20.4
2008-02-07 08:48:35 51°18.629 2°36.19 40.8 4 35 19.6
2008-02-07 08:48:40 51°18.634 2°36.194 40.9 3.8 33 18.9
2008-02-07 08:48:45 51°18.638 2°36.199 41.2 3.6 35 18.4
2008-02-07 08:48:50 51°18.642 2°36.203 42 3.5 35 17.9
2008-02-07 08:48:56 51°18.647 2°36.209 43.2 3.4 35 17.6
2008-02-07 08:49:00 51°18.649 2°36.212 44.2 3.2 40 17.3
2008-02-07 08:49:05 51°18.653 2°36.217 45.3 3.1 42 16.8
2008-02-07 08:49:11 51°18.656 2°36.222 47.2 2.9 41 16.6
2008-02-07 08:49:16 51°18.659 2°36.226 50.5 2.8 48 16.3
2008-02-07 08:49:20 51°18.661 2°36.23 53.9 2.6 51 16
2008-02-07 08:49:26 51°18.663 2°36.235 57.3 2.4 54 15.8
2008-02-07 08:49:31 51°18.665 2°36.24 60.9 2.3 59 17.3
2008-02-07 08:49:36 51°18.666 2°36.244 63.1 2.2 61 18.7
2008-02-07 08:49:40 51°18.667 2°36.247 64.6 2.1 66 19.8
2008-02-07 08:49:46 51°18.668 2°36.252 65.6 2 64 20.4
2008-02-07 08:49:51 51°18.67 2°36.255 65.9 1.8 61 20.8
2008-02-07 08:49:56 51°18.67 2°36.259 65.3 1.7 62 21
2008-02-07 08:50:00 51°18.671 2°36.261 63.6 1.6 64 21.4
2008-02-07 08:50:05 51°18.672 2°36.264 62.3 1.4 63 21.9
2008-02-07 08:50:11 51°18.673 2°36.267 61.6 1.3 54 22
2008-02-07 08:50:16 51°18.674 2°36.27 61.9 1.3 67 21.8
2008-02-07 08:50:20 51°18.675 2°36.272 62.7 1.2 66 21.8
2008-02-07 08:50:25 51°18.675 2°36.274 63.6 1.1 64 22.2
2008-02-07 08:50:31 51°18.676 2°36.276 64.6 1 71 22.4
2008-02-07 08:50:36 51°18.676 2°36.278 66.1 0.9 78 22.6
2008-02-07 08:50:40 51°18.676 2°36.279 67.5 0.8 68 22.7
2008-02-07 08:50:45 51°18.676 2°36.281 68.9 0.8 85 22.7
2008-02-07 08:50:51 51°18.677 2°36.283 70.7 0.6 76 22.6
2008-02-07 08:50:56 51°18.677 2°36.283 72 0.3 94 22.6
2008-02-07 08:51:00 51°18.677 2°36.284 72.7 0.1 155 22.5
2008-02-07 08:51:04 51°18.676 2°36.284 73 0.2 247 22.6
2008-02-07 08:51:10 51°18.676 2°36.283 73.5 0.5 225 22.7
2008-02-07 08:51:16 51°18.676 2°36.281 74 0.5 255 22.7
2008-02-07 08:51:20 51°18.675 2°36.281 74.6 0.5 229 22.7
2008-02-07 08:51:25 51°18.675 2°36.279 76 0.5 262 22.7
2008-02-07 08:51:30 51°18.675 2°36.279 77.8 0.4 223 22.4
2008-02-07 08:51:35 51°18.675 2°36.278 79 0.2 248 22.2
2008-02-07 08:51:40 51°18.674 2°36.279 79.8 0.2 131 22.3
2008-02-07 08:51:45 51°18.675 2°36.28 79.2 0.6 76 22.3
2008-02-07 08:51:51 51°18.675 2°36.283 76.3 1.1 79 22.7
2008-02-07 08:51:56 51°18.676 2°36.286 72.2 1.4 67 22.7
2008-02-07 08:52:00 51°18.676 2°36.289 66.9 1.7 70 22.3
2008-02-07 08:52:05 51°18.678 2°36.292 60.3 1.9 52 22.6
2008-02-07 08:52:11 51°18.681 2°36.296 54 2.1 43 22.1
2008-02-07 08:52:16 51°18.683 2°36.299 47.2 2 36 22.3
2008-02-07 08:52:20 51°18.685 2°36.3 41.6 1.9 30 22.1
2008-02-07 08:52:26 51°18.688 2°36.302 38.1 1.7 24 21.9
2008-02-07 08:52:30 51°18.689 2°36.303 36.2 1.7 22 22.1
2008-02-07 08:52:36 51°18.692 2°36.304 35 1.5 22 21.7
2008-02-07 08:52:40 51°18.693 2°36.305 34.3 1.2 12 21.5
2008-02-07 08:52:46 51°18.694 2°36.305 33.4 0.8 7 21.8
2008-02-07 08:52:50 51°18.694 2°36.304 31.3 0.5 334 22
2008-02-07 08:52:56 51°18.695 2°36.303 28.7 0.3 305 22
2008-02-07 08:53:00 51°18.696 2°36.303 26.8 0.4 312 22.1
2008-02-07 08:53:05 51°18.696 2°36.302 25.9 0.4 319 22.1
2008-02-07 08:53:11 51°18.697 2°36.3 25.4 0.6 311 22.1
2008-02-07 08:53:16 51°18.697 2°36.3 24.5 0.4 317 22.1
2008-02-07 08:53:20 51°18.698 2°36.299 23.6 0.6 312 22.1
2008-02-07 08:53:25 51°18.698 2°36.298 22.5 0.5 321 22.1
2008-02-07 08:53:31 51°18.699 2°36.297 22 0.7 312 21.9
2008-02-07 08:53:36 51°18.7 2°36.296 20.7 0.6 321 22
2008-02-07 08:53:40 51°18.7 2°36.295 19.5 0.8 312 21.8